Time;durP1;ratioP1;P1;durP2;ratioP2;P2;SDS_P1;SDS_P2;PMS_P1;PMS_P2;Temp;Humidity;BMP_temperature;BMP_pressure;BME280_temperature;BME280_humidity;BME280_pressure;Samples;Min_cycle;Max_cycle;Signal;HPM_P1;HPM_P2
2022/10/11 00:02:08;;;;;;;0.60;0.60;;;14.10;99.90;;;;;;5076351;28;20908;-79
2022/10/11 00:04:35;;;;;;;0.80;0.47;;;14.10;99.90;;;;;;5075882;28;20992;-79
2022/10/11 00:07:02;;;;;;;0.77;0.40;;;14.10;99.90;;;;;;5076164;28;20949;-79
2022/10/11 00:09:29;;;;;;;0.83;0.60;;;14.10;99.90;;;;;;5076518;28;20453;-79
2022/10/11 00:11:56;;;;;;;0.60;0.50;;;14.10;99.90;;;;;;5076084;28;20441;-79
2022/10/11 00:14:23;;;;;;;1.27;0.70;;;14.00;99.90;;;;;;5075973;28;20457;-79
2022/10/11 00:16:50;;;;;;;0.50;0.50;;;14.10;99.90;;;;;;5075846;28;20818;-79
2022/10/11 00:19:18;;;;;;;0.80;0.50;;;14.10;99.90;;;;;;5076197;28;20444;-79
2022/10/11 00:21:45;;;;;;;0.67;0.50;;;14.10;99.90;;;;;;5076132;28;20540;-79
2022/10/11 00:24:14;;;;;;;0.53;0.50;;;14.10;99.90;;;;;;5075989;28;20481;-79
2022/10/11 00:26:41;;;;;;;10.63;0.83;;;14.10;99.90;;;;;;5076617;28;20458;-79
2022/10/11 00:29:08;;;;;;;1.07;0.57;;;14.10;99.90;;;;;;5075965;28;20460;-79
2022/10/11 00:31:35;;;;;;;1.80;0.50;;;14.10;99.90;;;;;;5075981;28;20643;-79
2022/10/11 00:34:01;;;;;;;0.90;0.60;;;14.00;99.90;;;;;;5075533;28;20822;-79
2022/10/11 00:36:29;;;;;;;0.90;0.80;;;14.00;99.90;;;;;;5076029;28;20446;-79
2022/10/11 00:38:56;;;;;;;0.60;0.60;;;14.00;99.90;;;;;;5075812;28;20485;-79
2022/10/11 00:41:23;;;;;;;0.50;0.50;;;14.10;99.90;;;;;;5075823;28;20452;-79
2022/10/11 00:44:08;;;;;;;8.70;1.20;;;14.10;99.90;;;;;;5074896;28;20493;-79
2022/10/11 00:46:35;;;;;;;0.60;0.60;;;14.10;99.90;;;;;;5076073;28;20449;-79
2022/10/11 00:49:07;;;;;;;0.60;0.60;;;14.20;99.90;;;;;;5075686;28;20449;-79
2022/10/11 00:51:45;;;;;;;1.70;1.07;;;14.20;99.90;;;;;;5076193;28;20434;-79
2022/10/11 00:54:16;;;;;;;0.50;0.50;;;14.20;99.90;;;;;;5075553;28;20806;-79
2022/10/11 00:56:48;;;;;;;5.43;1.17;;;14.20;99.90;;;;;;5075383;28;20437;-79
2022/10/11 00:59:18;;;;;;;0.70;0.70;;;14.20;99.90;;;;;;5075472;28;20433;-79
2022/10/11 01:01:45;;;;;;;1.40;0.80;;;14.20;99.90;;;;;;5075474;28;20430;-79
2022/10/11 01:04:12;;;;;;;0.90;0.60;;;14.20;99.90;;;;;;5074937;28;20497;-79
2022/10/11 01:06:41;;;;;;;3.07;1.20;;;14.20;99.90;;;;;;5075351;28;20453;-79
2022/10/11 01:09:08;;;;;;;3.07;1.07;;;14.20;99.90;;;;;;5074914;28;20453;-79
2022/10/11 01:11:37;;;;;;;0.80;0.50;;;14.30;99.90;;;;;;5075223;28;20460;-79
2022/10/11 01:14:34;;;;;;;0.70;0.60;;;14.30;99.90;;;;;;5075094;28;20470;-79
2022/10/11 01:17:08;;;;;;;3.83;1.13;;;14.30;99.90;;;;;;5075099;28;20457;-79
2022/10/11 01:19:56;;;;;;;0.47;0.47;;;14.30;99.90;;;;;;5075161;28;20437;-79
2022/10/11 01:22:42;;;;;;;3.60;1.50;;;14.30;99.90;;;;;;5074657;28;20928;-79
2022/10/11 01:25:26;;;;;;;2.00;0.73;;;14.30;99.90;;;;;;5074782;28;20465;-79
2022/10/11 01:28:08;;;;;;;1.47;0.50;;;14.30;99.90;;;;;;5074914;28;20433;-79
2022/10/11 01:30:37;;;;;;;0.63;0.63;;;14.30;99.90;;;;;;5074730;28;20441;-79
2022/10/11 01:33:17;;;;;;;1.13;0.70;;;14.30;99.90;;;;;;5074444;28;20815;-79
2022/10/11 01:35:48;;;;;;;7.37;0.70;;;14.30;99.90;;;;;;5074825;28;20488;-79
2022/10/11 01:38:22;;;;;;;0.50;0.50;;;14.30;99.90;;;;;;5074363;28;20430;-79
2022/10/11 01:40:52;;;;;;;0.60;0.60;;;14.30;99.90;;;;;;5074701;28;20434;-79
2022/10/11 01:43:20;;;;;;;1.33;0.40;;;14.40;99.90;;;;;;5074161;28;20488;-79
2022/10/11 01:45:51;;;;;;;2.10;0.60;;;14.30;99.90;;;;;;5074165;28;20971;-79
2022/10/11 01:48:17;;;;;;;1.00;0.60;;;14.40;99.90;;;;;;5074474;28;20422;-79
2022/10/11 01:50:47;;;;;;;0.53;0.53;;;14.40;99.90;;;;;;5074510;28;20441;-79
2022/10/11 01:53:30;;;;;;;0.93;0.70;;;14.30;99.90;;;;;;5074363;28;20815;-79
2022/10/11 01:56:04;;;;;;;0.50;0.47;;;14.30;99.90;;;;;;5073329;28;20488;-79
2022/10/11 01:58:40;;;;;;;0.70;0.67;;;14.30;99.90;;;;;;5074283;28;20438;-79
2022/10/11 02:01:19;;;;;;;0.50;0.40;;;14.30;99.90;;;;;;5074271;28;20430;-78
2022/10/11 02:03:51;;;;;;;3.67;0.53;;;14.30;99.90;;;;;;5073762;28;20519;-78
2022/10/11 02:06:25;;;;;;;1.90;0.97;;;14.30;99.90;;;;;;5074993;28;20524;-79
2022/10/11 02:08:57;;;;;;;0.90;0.70;;;14.30;99.90;;;;;;5074023;28;20445;-79
2022/10/11 02:11:27;;;;;;;1.80;0.73;;;14.30;99.90;;;;;;5073734;28;20459;-79
2022/10/11 02:13:59;;;;;;;0.60;0.60;;;14.30;99.90;;;;;;5073898;28;20786;-79
2022/10/11 02:16:36;;;;;;;2.20;0.70;;;14.20;99.90;;;;;;5074014;28;20448;-79
2022/10/11 02:19:05;;;;;;;0.50;0.50;;;14.20;99.90;;;;;;5073905;28;20429;-79
2022/10/11 02:21:36;;;;;;;0.80;0.53;;;14.20;99.90;;;;;;5073910;28;20818;-78
2022/10/11 02:24:08;;;;;;;0.80;0.50;;;14.20;99.90;;;;;;5073406;28;21015;-79
2022/10/11 02:26:36;;;;;;;0.60;0.60;;;14.10;99.90;;;;;;5073866;28;20429;-78
2022/10/11 02:29:06;;;;;;;3.43;0.60;;;14.10;99.90;;;;;;5073365;28;20959;-79
2022/10/11 02:31:35;;;;;;;0.90;0.67;;;14.10;99.90;;;;;;5073701;28;20449;-78
2022/10/11 02:34:11;;;;;;;0.73;0.50;;;14.10;99.90;;;;;;5073291;28;20496;-79
2022/10/11 02:36:44;;;;;;;2.27;0.47;;;14.10;99.90;;;;;;5073726;28;20438;-79
2022/10/11 02:39:17;;;;;;;1.00;0.67;;;14.10;99.90;;;;;;5073596;28;20433;-79
2022/10/11 02:41:46;;;;;;;1.53;0.90;;;14.10;99.90;;;;;;5073620;28;20437;-79
2022/10/11 02:44:17;;;;;;;1.07;0.80;;;14.10;99.90;;;;;;5073089;28;21016;-79
2022/10/11 02:46:46;;;;;;;2.03;1.33;;;14.10;99.90;;;;;;5073604;28;20499;-78
2022/10/11 02:49:14;;;;;;;1.37;0.60;;;14.10;99.90;;;;;;5073361;28;20454;-79
2022/10/11 02:51:40;;;;;;;1.97;0.80;;;14.10;99.90;;;;;;5073537;28;20449;-78
2022/10/11 02:54:07;;;;;;;3.60;1.20;;;14.10;99.90;;;;;;5073575;28;20461;-79
2022/10/11 02:56:34;;;;;;;1.00;0.93;;;14.10;99.90;;;;;;5073141;28;20805;-79
2022/10/11 02:59:01;;;;;;;1.00;0.70;;;14.20;99.90;;;;;;5072996;28;20456;-79
2022/10/11 03:01:27;;;;;;;1.57;1.03;;;14.10;99.90;;;;;;5073545;28;20446;-79
2022/10/11 03:03:55;;;;;;;2.53;0.90;;;14.10;99.90;;;;;;5072867;28;20500;-79
2022/10/11 03:06:22;;;;;;;4.37;1.03;;;14.10;99.90;;;;;;5073293;28;20452;-78
2022/10/11 03:08:49;;;;;;;2.27;1.03;;;14.10;99.90;;;;;;5072947;28;20449;-78
2022/10/11 03:11:15;;;;;;;3.80;0.83;;;14.00;99.90;;;;;;5073338;28;20821;-78
2022/10/11 03:13:42;;;;;;;3.87;0.90;;;14.00;99.90;;;;;;5073181;28;20430;-78
2022/10/11 03:16:09;;;;;;;2.53;0.93;;;14.00;99.90;;;;;;5073154;28;20487;-78
2022/10/11 03:18:36;;;;;;;1.40;0.90;;;13.90;99.90;;;;;;5073127;28;20449;-78
2022/10/11 03:21:04;;;;;;;1.93;1.10;;;13.90;99.90;;;;;;5072900;28;20438;-78
2022/10/11 03:23:30;;;;;;;2.00;1.13;;;13.90;99.90;;;;;;5072634;28;20853;-78
2022/10/11 03:25:57;;;;;;;2.20;1.00;;;13.90;99.90;;;;;;5073014;28;20462;-78
2022/10/11 03:28:24;;;;;;;1.03;0.90;;;13.90;99.90;;;;;;5073316;28;20448;-79
2022/10/11 03:30:52;;;;;;;2.53;1.43;;;13.90;99.90;;;;;;5072695;28;20945;-79
2022/10/11 03:33:19;;;;;;;3.50;1.30;;;13.90;99.90;;;;;;5072954;28;20445;-78
2022/10/11 03:35:47;;;;;;;1.50;0.90;;;14.00;99.90;;;;;;5073192;28;20841;-79
2022/10/11 03:38:17;;;;;;;2.20;1.53;;;13.90;99.90;;;;;;5073033;28;20468;-78
2022/10/11 03:40:44;;;;;;;3.70;2.37;;;13.90;99.90;;;;;;5073108;28;20470;-78
2022/10/11 03:43:11;;;;;;;2.17;1.50;;;13.90;99.90;;;;;;5073111;28;20451;-78
2022/10/11 03:45:38;;;;;;;4.83;2.00;;;14.00;99.90;;;;;;5072768;28;20477;-78
2022/10/11 03:48:05;;;;;;;2.60;1.40;;;14.00;99.90;;;;;;5072842;28;20453;-78
2022/10/11 03:50:32;;;;;;;2.40;1.60;;;13.90;99.90;;;;;;5072661;28;20449;-78
2022/10/11 03:52:59;;;;;;;1.83;1.40;;;14.00;99.90;;;;;;5072534;28;20967;-78
2022/10/11 03:55:27;;;;;;;4.63;2.43;;;14.00;99.90;;;;;;5072746;28;20477;-79
2022/10/11 03:57:54;;;;;;;4.00;1.67;;;14.00;99.90;;;;;;5072769;28;20457;-78
2022/10/11 04:00:21;;;;;;;4.20;1.70;;;14.00;99.90;;;;;;5072942;28;20445;-78
2022/10/11 04:02:47;;;;;;;3.67;1.20;;;14.00;99.90;;;;;;5072711;28;20489;-78
2022/10/11 04:05:14;;;;;;;4.83;1.60;;;14.00;99.90;;;;;;5072409;28;20489;-78
2022/10/11 04:07:41;;;;;;;3.93;2.03;;;13.90;99.90;;;;;;5072921;28;20450;-78
2022/10/11 04:10:08;;;;;;;2.87;1.60;;;13.90;99.90;;;;;;5072960;28;20457;-78
2022/10/11 04:12:37;;;;;;;3.23;2.17;;;13.90;99.90;;;;;;5072279;28;20454;-78
2022/10/11 04:15:04;;;;;;;6.07;2.13;;;13.90;99.90;;;;;;5072544;28;20468;-78
2022/10/11 04:17:31;;;;;;;7.13;1.83;;;13.90;99.90;;;;;;5072492;28;20456;-78
2022/10/11 04:19:58;;;;;;;4.30;1.73;;;13.90;99.90;;;;;;5074374;28;20452;-78
2022/10/11 04:22:25;;;;;;;2.70;1.73;;;13.80;99.90;;;;;;5076114;28;20446;-79
2022/10/11 04:24:52;;;;;;;2.57;1.47;;;13.80;99.90;;;;;;5076010;28;20488;-78
2022/10/11 04:27:18;;;;;;;3.07;1.23;;;13.80;99.90;;;;;;5076008;28;20445;-77
2022/10/11 04:29:46;;;;;;;2.60;1.40;;;13.90;99.90;;;;;;5075751;28;20457;-77
2022/10/11 04:32:13;;;;;;;4.37;2.80;;;13.80;99.90;;;;;;5076073;28;20456;-77
2022/10/11 04:34:40;;;;;;;4.00;1.70;;;13.80;99.90;;;;;;5075655;28;20473;-77
2022/10/11 04:37:07;;;;;;;7.07;2.10;;;13.70;99.90;;;;;;5075492;28;20798;-77
2022/10/11 04:39:33;;;;;;;3.23;1.67;;;13.80;99.90;;;;;;5075868;28;20453;-77
2022/10/11 04:42:00;;;;;;;3.00;2.70;;;13.80;99.90;;;;;;5075925;28;20445;-77
2022/10/11 04:44:27;;;;;;;3.10;1.40;;;13.70;99.90;;;;;;5075279;28;20485;-77
2022/10/11 04:46:55;;;;;;;5.07;1.40;;;13.70;99.90;;;;;;5075654;28;20452;-77
2022/10/11 04:49:22;;;;;;;2.53;1.53;;;13.80;99.90;;;;;;5075433;28;20964;-77
2022/10/11 04:51:49;;;;;;;8.30;1.80;;;13.80;99.90;;;;;;5075601;28;20449;-77
2022/10/11 04:54:15;;;;;;;2.70;1.90;;;13.70;99.90;;;;;;5075553;28;20459;-77
2022/10/11 04:56:42;;;;;;;2.70;1.53;;;13.80;99.90;;;;;;5075508;28;20473;-77
2022/10/11 04:59:09;;;;;;;3.63;1.20;;;13.70;99.90;;;;;;5075452;28;20456;-77
2022/10/11 05:01:36;;;;;;;2.60;1.53;;;13.70;99.90;;;;;;5075415;28;20442;-77
2022/10/11 05:04:04;;;;;;;8.17;1.93;;;13.70;99.90;;;;;;5074849;28;21047;-77
2022/10/11 05:06:31;;;;;;;3.03;1.30;;;13.70;99.90;;;;;;5075336;28;20514;-77
2022/10/11 05:08:58;;;;;;;1.90;1.70;;;13.80;99.90;;;;;;5075298;28;20456;-77
2022/10/11 05:11:24;;;;;;;6.93;1.90;;;13.80;99.90;;;;;;5075540;28;20442;-78
2022/10/11 05:13:51;;;;;;;5.63;1.50;;;13.80;99.90;;;;;;5075057;28;20445;-77
2022/10/11 05:16:18;;;;;;;3.70;2.37;;;13.70;99.90;;;;;;5074956;28;20464;-77
2022/10/11 05:18:45;;;;;;;10.20;2.07;;;13.70;99.90;;;;;;5075151;28;20441;-77
2022/10/11 05:21:19;;;;;;;5.30;2.10;;;13.70;99.90;;;;;;5074742;28;20471;-77
2022/10/11 05:23:47;;;;;;;4.33;2.03;;;13.70;99.90;;;;;;5074783;28;20787;-77
2022/10/11 05:26:15;;;;;;;1.87;1.13;;;13.70;99.90;;;;;;5074738;28;20463;-77
2022/10/11 05:28:41;;;;;;;2.80;1.90;;;13.70;99.90;;;;;;5074744;28;20446;-77
2022/10/11 05:31:08;;;;;;;4.07;1.80;;;13.70;99.90;;;;;;5074600;28;20822;-77
2022/10/11 05:33:36;;;;;;;2.53;1.50;;;13.70;99.90;;;;;;5074504;28;20438;-77
2022/10/11 05:36:03;;;;;;;3.97;1.23;;;13.70;99.90;;;;;;5074883;28;20469;-77
2022/10/11 05:38:31;;;;;;;6.90;3.30;;;13.70;99.90;;;;;;5074791;28;20450;-77
2022/10/11 05:40:59;;;;;;;6.53;2.50;;;13.80;99.90;;;;;;5074613;28;20835;-77
2022/10/11 05:43:26;;;;;;;3.80;2.03;;;13.80;99.90;;;;;;5074453;28;20452;-77
2022/10/11 05:45:53;;;;;;;16.33;2.77;;;13.80;99.90;;;;;;5074130;28;21020;-77
2022/10/11 05:48:19;;;;;;;3.90;2.23;;;13.80;99.90;;;;;;5074481;28;20464;-77
2022/10/11 05:50:46;;;;;;;4.80;2.33;;;13.80;99.90;;;;;;5074442;28;20516;-77
2022/10/11 05:53:13;;;;;;;2.00;1.50;;;13.80;99.90;;;;;;5074501;28;20441;-77
2022/10/11 05:55:42;;;;;;;6.43;2.67;;;13.80;99.90;;;;;;5074132;28;20999;-77
2022/10/11 05:58:13;;;;;;;4.30;1.77;;;13.70;99.90;;;;;;5074110;28;20960;-77
2022/10/11 06:00:40;;;;;;;3.10;1.50;;;13.70;99.90;;;;;;5074437;28;20439;-77
2022/10/11 06:03:10;;;;;;;4.37;1.90;;;13.70;99.90;;;;;;5073862;28;20817;-78
2022/10/11 06:05:36;;;;;;;3.90;1.37;;;13.70;99.90;;;;;;5074453;28;20490;-77
2022/10/11 06:08:04;;;;;;;2.40;1.67;;;13.70;99.90;;;;;;5073992;28;20429;-77
2022/10/11 06:10:31;;;;;;;2.70;1.50;;;13.70;99.90;;;;;;5074169;28;20453;-77
2022/10/11 06:12:59;;;;;;;4.27;1.30;;;13.80;99.90;;;;;;5074115;28;20449;-77
2022/10/11 06:15:26;;;;;;;5.80;2.20;;;13.80;99.90;;;;;;5073992;28;20827;-77
2022/10/11 06:17:53;;;;;;;4.87;1.80;;;13.80;99.90;;;;;;5074016;28;20449;-77
2022/10/11 06:20:20;;;;;;;3.77;1.53;;;13.80;99.90;;;;;;5074016;28;20456;-77
2022/10/11 06:22:46;;;;;;;2.87;1.70;;;13.80;99.90;;;;;;5073982;28;20449;-77
2022/10/11 06:25:13;;;;;;;5.63;1.80;;;13.80;99.90;;;;;;5073525;28;20481;-78
2022/10/11 06:27:40;;;;;;;7.87;2.40;;;13.90;99.90;;;;;;5073659;28;20909;-79
2022/10/11 06:30:09;;;;;;;5.80;2.20;;;13.90;99.90;;;;;;5073511;28;20786;-79
2022/10/11 06:32:36;;;;;;;6.63;2.80;;;13.90;99.90;;;;;;5073739;28;20450;-79
2022/10/11 06:35:04;;;;;;;4.40;1.60;;;13.90;99.90;;;;;;5073664;28;20476;-79
2022/10/11 06:37:31;;;;;;;6.40;2.63;;;13.80;99.90;;;;;;5073707;28;20499;-79
2022/10/11 06:39:57;;;;;;;4.57;2.13;;;13.80;99.90;;;;;;5073901;28;20442;-79
2022/10/11 06:42:24;;;;;;;6.03;2.30;;;13.70;99.90;;;;;;5073136;28;20457;-79
2022/10/11 06:44:51;;;;;;;5.63;2.53;;;13.70;99.90;;;;;;5073533;28;20493;-78
2022/10/11 06:47:19;;;;;;;5.87;2.07;;;13.70;99.90;;;;;;5073556;28;20449;-79
2022/10/11 06:49:46;;;;;;;4.53;2.37;;;13.70;99.90;;;;;;5073570;28;20447;-79
2022/10/11 06:52:12;;;;;;;5.10;1.80;;;13.60;99.90;;;;;;5073540;28;20445;-79
2022/10/11 06:54:39;;;;;;;4.47;1.70;;;13.60;99.90;;;;;;5073131;28;20996;-79
2022/10/11 06:57:06;;;;;;;5.67;2.10;;;13.60;99.90;;;;;;5073400;28;20937;-79
2022/10/11 06:59:33;;;;;;;1.33;1.10;;;13.60;99.90;;;;;;5073453;28;20445;-79
2022/10/11 07:01:59;;;;;;;5.53;2.07;;;13.60;99.90;;;;;;5073143;28;20971;-79
2022/10/11 07:04:28;;;;;;;7.77;1.77;;;13.60;99.90;;;;;;5072743;28;20493;-79
2022/10/11 07:06:55;;;;;;;3.90;2.40;;;13.70;99.90;;;;;;5073400;28;20452;-79
2022/10/11 07:09:22;;;;;;;2.77;1.60;;;13.70;99.90;;;;;;5073378;28;20468;-79
2022/10/11 07:11:49;;;;;;;1.47;1.37;;;13.70;99.90;;;;;;5073019;28;20460;-79
2022/10/11 07:14:16;;;;;;;5.60;1.87;;;13.70;99.90;;;;;;5072984;28;20484;-79
2022/10/11 07:16:42;;;;;;;3.17;1.40;;;13.70;99.90;;;;;;5072975;28;20449;-79
2022/10/11 07:19:10;;;;;;;3.97;1.40;;;13.70;99.90;;;;;;5072959;28;20460;-79
2022/10/11 07:21:38;;;;;;;2.37;1.57;;;13.70;99.90;;;;;;5073005;28;20949;-79
2022/10/11 07:24:06;;;;;;;3.53;1.03;;;13.70;99.90;;;;;;5073198;28;20496;-79
2022/10/11 07:26:33;;;;;;;7.10;2.60;;;13.70;99.90;;;;;;5073241;28;20520;-79
2022/10/11 07:29:00;;;;;;;3.67;1.83;;;13.70;99.90;;;;;;5073376;28;20445;-79
2022/10/11 07:31:27;;;;;;;2.13;1.37;;;13.70;99.90;;;;;;5072855;28;20450;-79
2022/10/11 07:33:53;;;;;;;5.60;2.37;;;13.70;99.90;;;;;;5073100;28;20454;-79
2022/10/11 07:36:21;;;;;;;3.23;1.93;;;13.70;99.90;;;;;;5073374;28;20441;-79
2022/10/11 07:38:50;;;;;;;2.13;1.97;;;13.70;99.90;;;;;;5072984;28;20497;-80
2022/10/11 07:41:17;;;;;;;3.37;1.43;;;13.80;99.90;;;;;;5073078;28;20457;-82
2022/10/11 07:43:46;;;;;;;6.13;2.00;;;13.80;99.90;;;;;;5073023;28;20452;-82
2022/10/11 07:46:13;;;;;;;5.10;2.30;;;13.70;99.90;;;;;;5072632;28;21023;-83
2022/10/11 07:48:40;;;;;;;2.10;1.40;;;13.70;99.90;;;;;;5072700;28;20457;-82
2022/10/11 07:51:09;;;;;;;2.23;1.33;;;13.80;99.90;;;;;;5072699;28;21040;-82
2022/10/11 07:53:41;;;;;;;1.63;1.00;;;13.80;99.90;;;;;;5072737;28;20949;-83
2022/10/11 07:56:12;;;;;;;10.50;2.07;;;13.80;99.90;;;;;;5077578;28;20448;-83
2022/10/11 07:58:39;;;;;;;3.77;1.80;;;13.90;99.90;;;;;;5079799;28;20437;-89
2022/10/11 08:01:07;;;;;;;4.70;3.07;;;13.90;99.90;;;;;;5087093;28;20464;-89
2022/10/11 08:03:34;;;;;;;3.87;1.90;;;14.00;99.90;;;;;;5087039;28;20473;-90
2022/10/11 08:06:03;;;;;;;3.30;1.67;;;14.10;99.90;;;;;;5081275;28;20852;-88
2022/10/11 08:08:30;;;;;;;2.80;1.73;;;14.20;99.90;;;;;;5082947;28;20460;-88
2022/10/11 08:10:58;;;;;;;3.40;1.57;;;14.40;99.90;;;;;;5083746;28;20806;-89
2022/10/11 08:13:26;;;;;;;2.50;1.50;;;14.40;99.90;;;;;;5083586;28;20449;-89
2022/10/11 08:15:53;;;;;;;11.97;4.90;;;14.60;99.90;;;;;;5082472;28;20465;-89
2022/10/11 08:18:20;;;;;;;4.37;1.73;;;14.70;99.90;;;;;;5083344;28;20459;-89
2022/10/11 08:20:47;;;;;;;4.57;2.30;;;14.80;99.90;;;;;;5079938;28;20477;-84
2022/10/11 08:23:15;;;;;;;6.37;2.50;;;14.80;99.90;;;;;;5079069;28;20455;-83
2022/10/11 08:25:44;;;;;;;13.43;1.90;;;14.80;99.90;;;;;;5076317;28;20482;-82
2022/10/11 08:28:15;;;;;;;4.70;1.73;;;14.80;99.90;;;;;;5076461;28;20452;-82
2022/10/11 08:30:49;;;;;;;2.80;2.00;;;14.70;99.90;;;;;;5076387;28;20438;-82
2022/10/11 08:33:16;;;;;;;6.33;1.73;;;14.60;99.90;;;;;;5076498;28;20433;-82
2022/10/11 08:35:43;;;;;;;3.97;1.40;;;14.60;99.90;;;;;;5077124;28;20469;-82
2022/10/11 08:38:10;;;;;;;5.43;2.20;;;14.60;99.90;;;;;;5076147;28;20822;-79
2022/10/11 08:40:36;;;;;;;3.37;1.93;;;14.50;99.90;;;;;;5076078;28;20457;-75
2022/10/11 08:43:06;;;;;;;8.00;2.17;;;14.50;99.90;;;;;;5075925;28;20449;-75
2022/10/11 08:45:40;;;;;;;4.27;1.77;;;14.50;99.90;;;;;;5075490;28;20508;-75
2022/10/11 08:48:16;;;;;;;5.23;1.73;;;14.50;99.90;;;;;;5075879;28;20433;-76
2022/10/11 08:50:46;;;;;;;3.43;1.97;;;14.50;99.90;;;;;;5076066;28;20438;-76
2022/10/11 08:53:22;;;;;;;3.90;2.60;;;14.50;99.90;;;;;;5077696;28;20929;-85
2022/10/11 08:55:51;;;;;;;5.77;2.37;;;14.50;99.90;;;;;;5079206;28;20472;-85
2022/10/11 08:58:20;;;;;;;3.13;1.87;;;14.60;99.90;;;;;;5079334;28;20452;-85
2022/10/11 09:00:52;;;;;;;5.60;1.73;;;14.60;99.90;;;;;;5078692;28;20453;-85
2022/10/11 09:03:29;;;;;;;5.17;2.30;;;14.70;99.90;;;;;;5078373;28;20936;-85
2022/10/11 09:06:06;;;;;;;3.23;1.77;;;14.80;99.90;;;;;;5079344;28;20492;-85
2022/10/11 09:08:44;;;;;;;5.63;1.93;;;14.80;99.90;;;;;;5080199;28;20776;-85
2022/10/11 09:11:17;;;;;;;4.20;2.10;;;14.80;99.90;;;;;;5080743;28;20434;-85
2022/10/11 09:14:06;;;;;;;4.40;1.80;;;14.80;99.90;;;;;;5078962;28;20437;-79
2022/10/11 09:16:47;;;;;;;2.90;1.60;;;14.70;99.90;;;;;;5067895;28;20445;-78
2022/10/11 09:19:42;;;;;;;4.87;1.80;;;14.70;99.90;;;;;;5076143;28;20434;-79
2022/10/11 09:22:16;;;;;;;4.63;1.60;;;14.60;99.90;;;;;;5075001;28;20936;-80
2022/10/11 09:24:58;;;;;;;5.03;2.40;;;14.60;99.90;;;;;;5075112;28;20464;-80
2022/10/11 09:27:30;;;;;;;3.40;1.80;;;14.60;99.90;;;;;;5075261;28;20426;-82
2022/10/11 09:30:02;;;;;;;8.20;2.47;;;14.50;99.90;;;;;;5075176;28;20493;-82
2022/10/11 09:32:34;;;;;;;5.70;1.90;;;14.50;99.90;;;;;;5081696;28;20473;-88
2022/10/11 09:35:11;;;;;;;5.07;1.67;;;14.50;99.90;;;;;;5074900;28;20469;-84
2022/10/11 09:37:45;;;;;;;4.80;2.30;;;14.50;99.90;;;;;;5075029;28;20908;-82
2022/10/11 09:40:25;;;;;;;6.40;2.83;;;14.50;99.90;;;;;;5075127;28;20437;-82
2022/10/11 09:42:52;;;;;;;3.20;1.33;;;14.50;99.90;;;;;;5074863;28;20440;-81
2022/10/11 09:45:21;;;;;;;11.53;2.77;;;14.60;99.90;;;;;;5074378;28;20555;-83
2022/10/11 09:47:49;;;;;;;2.87;1.50;;;14.60;99.90;;;;;;5074744;28;20446;-81
2022/10/11 09:50:20;;;;;;;5.07;2.03;;;14.60;99.90;;;;;;5074728;28;20959;-87
2022/10/11 09:52:51;;;;;;;6.57;1.07;;;14.50;99.90;;;;;;5074842;28;20442;-85
2022/10/11 09:55:34;;;;;;;4.90;1.80;;;14.50;99.90;;;;;;5078994;28;20461;-90
2022/10/11 09:58:01;;;;;;;4.97;2.20;;;14.40;99.90;;;;;;5075922;28;20453;-90
2022/10/11 10:00:32;;;;;;;1.27;1.10;;;14.40;99.90;;;;;;5076141;28;20438;-89
2022/10/11 10:03:00;;;;;;;8.17;2.57;;;14.30;99.90;;;;;;5080167;28;20444;-90
2022/10/11 10:05:29;;;;;;;4.87;2.17;;;14.40;99.90;;;;;;5077074;28;20493;-90
2022/10/11 10:08:06;;;;;;;4.87;2.17;;;14.30;99.90;;;;;;5076937;28;20803;-90
2022/10/11 10:10:38;;;;;;;2.77;1.43;;;14.40;99.90;;;;;;5077635;28;20905;-90
2022/10/11 10:13:16;;;;;;;1.57;1.23;;;14.30;99.90;;;;;;5076041;28;20932;-89
2022/10/11 10:15:46;;;;;;;2.70;1.77;;;14.30;99.90;;;;;;5075775;28;20832;-90
2022/10/11 10:18:22;;;;;;;8.23;3.27;;;14.40;99.90;;;;;;5074676;28;20454;-90
2022/10/11 10:20:54;;;;;;;4.73;2.00;;;14.40;99.90;;;;;;5075431;28;20468;-90
2022/10/11 10:23:24;;;;;;;4.87;1.97;;;14.50;99.90;;;;;;5076411;28;20437;-90
2022/10/11 10:25:53;;;;;;;3.13;1.83;;;14.50;99.90;;;;;;5075315;28;20493;-90
2022/10/11 10:28:23;;;;;;;6.17;2.43;;;14.40;99.90;;;;;;5075029;28;20937;-90
2022/10/11 10:30:54;;;;;;;9.30;2.53;;;14.40;99.90;;;;;;5075290;28;20451;-83
2022/10/11 10:33:23;;;;;;;4.37;2.30;;;14.40;99.90;;;;;;5073577;28;20960;-84
2022/10/11 10:35:56;;;;;;;2.67;2.07;;;14.50;99.90;;;;;;5073750;28;20476;-84
2022/10/11 10:38:27;;;;;;;5.50;3.53;;;14.50;99.90;;;;;;5073964;28;20449;-83
2022/10/11 10:40:57;;;;;;;6.53;2.60;;;14.50;99.90;;;;;;5073737;28;20441;-83
2022/10/11 10:43:26;;;;;;;4.70;2.47;;;14.50;99.90;;;;;;5073766;28;20457;-83
2022/10/11 10:46:07;;;;;;;6.93;3.50;;;14.50;99.90;;;;;;5073483;28;20500;-83
2022/10/11 10:48:41;;;;;;;5.43;2.53;;;14.40;99.90;;;;;;5073666;28;20430;-83
2022/10/11 10:51:17;;;;;;;8.07;2.07;;;14.40;99.90;;;;;;5073658;28;20767;-83
2022/10/11 10:53:48;;;;;;;3.50;2.23;;;14.60;99.90;;;;;;5073523;28;20440;-83
2022/10/11 10:56:18;;;;;;;5.13;2.37;;;14.60;99.90;;;;;;5073926;28;20430;-84
2022/10/11 10:59:05;;;;;;;6.67;2.80;;;14.60;99.90;;;;;;5073259;28;20436;-83
2022/10/11 11:01:35;;;;;;;3.57;1.83;;;14.60;99.90;;;;;;5073068;28;20464;-83
2022/10/11 11:04:13;;;;;;;6.83;3.00;;;14.60;99.90;;;;;;5073261;28;20485;-84
2022/10/11 11:06:48;;;;;;;3.13;1.17;;;14.70;99.90;;;;;;5073392;28;20469;-84
2022/10/11 11:09:29;;;;;;;3.20;2.13;;;14.70;99.90;;;;;;5073595;28;20928;-88
2022/10/11 11:12:04;;;;;;;6.00;2.23;;;14.70;99.90;;;;;;5075222;28;20434;-87
2022/10/11 11:14:44;;;;;;;4.37;2.10;;;14.70;99.90;;;;;;5075013;28;20469;-88
2022/10/11 11:17:21;;;;;;;4.80;2.10;;;14.60;99.90;;;;;;5075109;28;20426;-88
2022/10/11 11:20:03;;;;;;;7.27;2.70;;;14.60;99.90;;;;;;5074156;28;20420;-88
2022/10/11 11:22:43;;;;;;;3.03;1.60;;;14.60;99.90;;;;;;5075498;28;20434;-89
2022/10/11 11:25:25;;;;;;;5.50;2.30;;;14.50;99.90;;;;;;5074037;28;20501;-88
2022/10/11 11:28:02;;;;;;;3.80;2.07;;;14.50;99.90;;;;;;5074686;28;20465;-88
2022/10/11 11:30:38;;;;;;;7.53;2.07;;;14.40;99.90;;;;;;5079340;28;20429;-89
2022/10/11 11:33:18;;;;;;;4.97;3.90;;;14.40;99.90;;;;;;5078862;28;20513;-89
2022/10/11 11:35:51;;;;;;;6.80;2.00;;;14.50;99.90;;;;;;5078265;28;20461;-89
2022/10/11 11:38:26;;;;;;;8.80;1.90;;;14.50;99.90;;;;;;5078554;28;20529;-89
2022/10/11 11:40:57;;;;;;;2.40;1.60;;;14.60;99.90;;;;;;5078539;28;20429;-89
2022/10/11 11:43:31;;;;;;;3.03;1.67;;;14.60;99.90;;;;;;5078052;28;20927;-89
2022/10/11 11:46:03;;;;;;;5.20;1.90;;;14.60;99.90;;;;;;5077475;28;20485;-89
2022/10/11 11:48:30;;;;;;;3.93;2.43;;;14.50;99.90;;;;;;5078107;28;20436;-88
2022/10/11 11:51:03;;;;;;;3.17;1.73;;;14.60;99.90;;;;;;5078017;28;20933;-88
2022/10/11 11:53:50;;;;;;;5.50;1.53;;;14.60;99.90;;;;;;5077550;28;20426;-83
2022/10/11 11:56:26;;;;;;;3.53;2.40;;;14.60;99.90;;;;;;5076829;28;20430;-82
2022/10/11 11:59:02;;;;;;;2.00;1.50;;;14.70;99.90;;;;;;5076788;28;20429;-82
2022/10/11 12:01:37;;;;;;;2.67;1.47;;;14.70;99.90;;;;;;5076608;28;20994;-82
2022/10/11 12:04:10;;;;;;;2.67;1.23;;;14.70;99.90;;;;;;5076272;28;20483;-82
2022/10/11 12:06:38;;;;;;;3.40;2.00;;;14.70;99.90;;;;;;5076233;28;20835;-83
2022/10/11 12:09:19;;;;;;;2.20;1.60;;;14.70;99.90;;;;;;5076619;28;20441;-83
2022/10/11 12:11:52;;;;;;;3.27;2.00;;;14.80;99.90;;;;;;5076639;28;20443;-83
2022/10/11 12:14:34;;;;;;;4.27;2.50;;;14.80;99.90;;;;;;5076692;28;20518;-82
2022/10/11 12:17:14;;;;;;;4.30;2.50;;;14.80;99.90;;;;;;5077016;28;20439;-82
2022/10/11 12:19:43;;;;;;;4.20;1.80;;;14.80;99.90;;;;;;5077558;28;20442;-82
2022/10/11 12:22:19;;;;;;;9.67;3.17;;;14.80;99.90;;;;;;5076474;28;20445;-82
2022/10/11 12:24:58;;;;;;;5.70;1.90;;;14.80;99.90;;;;;;5076253;28;20469;-83
2022/10/11 12:27:38;;;;;;;2.23;1.20;;;14.90;99.90;;;;;;5076319;28;20480;-83
2022/10/11 12:30:25;;;;;;;3.17;2.27;;;15.00;99.90;;;;;;5076102;28;20440;-83
2022/10/11 12:33:02;;;;;;;1.53;1.33;;;15.00;99.90;;;;;;5076090;28;20449;-84
2022/10/11 12:35:56;;;;;;;6.53;2.10;;;15.00;99.90;;;;;;5076496;28;20473;-81
2022/10/11 12:38:24;;;;;;;4.17;1.70;;;15.10;99.90;;;;;;5076369;28;20449;-83
2022/10/11 12:40:55;;;;;;;4.33;1.13;;;15.20;99.90;;;;;;5075235;28;20449;-84
2022/10/11 12:43:31;;;;;;;2.77;1.80;;;15.30;99.90;;;;;;5076336;28;20429;-83
2022/10/11 12:46:18;;;;;;;6.87;1.80;;;15.20;99.90;;;;;;5076100;28;20465;-84
2022/10/11 12:48:54;;;;;;;2.37;1.60;;;15.30;99.90;;;;;;5075691;28;20870;-83
2022/10/11 12:51:32;;;;;;;2.80;1.33;;;15.30;99.90;;;;;;5076119;28;20765;-83
2022/10/11 12:54:25;;;;;;;2.33;1.37;;;15.30;99.90;;;;;;5075791;28;20445;-83
2022/10/11 12:57:13;;;;;;;1.53;1.07;;;15.40;99.90;;;;;;5074047;28;20452;-84
2022/10/11 12:59:43;;;;;;;2.90;2.40;;;15.40;99.90;;;;;;5075734;28;20803;-84
2022/10/11 13:02:26;;;;;;;3.87;2.00;;;15.40;99.90;;;;;;5075666;28;20430;-83
2022/10/11 13:05:04;;;;;;;2.20;1.50;;;15.50;99.90;;;;;;5076586;28;21038;-90